Terminal Aerodrome Forecast
Issued by NWS Wilmington, OH

Home | Current Version | Previous Version | Text Only | Print | Product List | Glossary On
Versions: 1 2 3 4 5 6 7 8 9 10 11 12 13 14 15 16 17 18 19 20 21 22 23 24 25 26 27 28 29 30 31 32
000
FTUS41 KILN 040500
TAFCVG
TAF
KCVG 040528Z 0406/0512 34004KT 4SM BR BKN040
      TEMPO 0409/0412 2SM BR
     FM041300 01005KT P6SM FEW040 SCT080
     FM041800 32006KT P6SM SCT040
     FM050000 VRB03KT P6SM FEW040=

USA.gov is the U.S. government's official web portal to all federal, state and local government web resources and services.